Terminal Aerodrome Forecast
Issued by NWS

Home | Current Version | Previous Version | Text Only | Print | Product List | Glossary On
Versions: 1 2 3 4 5 6 7 8 9 10 11 12 13 14 15 16
000
FTUS42 TJSJ 211100
TAFJBQ
TAF
TJBQ 211125Z 2112/2212 12010KT P6SM SCT025 BKN040
      TEMPO 2112/2114 BKN025 BKN040
     FM211430 08015G25KT P6SM SCT030 SCT050
      TEMPO 2118/2120 06013G20KT 4SM TSRA SCT025CB BKN050
     FM212230 11012KT P6SM VCSH SCT020 BKN040=

USA.gov is the U.S. government's official web portal to all federal, state and local government web resources and services.